createdAt,value
2023-02-28T00:00:53.050Z,101297.81
2023-02-28T00:03:19.572Z,101296.03
2023-02-28T00:05:46.152Z,101291.63
2023-02-28T00:08:14.149Z,101287.31
2023-02-28T00:10:40.654Z,101295.09
2023-02-28T00:13:07.814Z,101294.22
2023-02-28T00:15:34.497Z,101291.59
2023-02-28T00:18:01.481Z,101289.81
2023-02-28T00:20:28.230Z,101295.03
2023-02-28T00:22:56.043Z,101290.69
2023-02-28T00:25:25.045Z,101301.06
2023-02-28T00:27:51.736Z,101293.22
2023-02-28T00:30:24.286Z,101287.16
2023-02-28T00:32:51.750Z,101290.59
2023-02-28T00:35:18.687Z,101293.22
2023-02-28T00:37:45.234Z,101289.72
2023-02-28T00:40:13.127Z,101291.47
2023-02-28T00:42:40.575Z,101288.81
2023-02-28T00:45:08.937Z,101283.59
2023-02-28T00:47:35.618Z,101292.28
2023-02-28T00:50:02.323Z,101294.00
2023-02-28T00:52:28.895Z,101284.44
2023-02-28T00:54:55.432Z,101278.31
2023-02-28T00:57:22.036Z,101277.44
2023-02-28T00:59:48.571Z,101287.00
2023-02-28T01:02:15.088Z,101279.19
2023-02-28T01:04:41.569Z,101279.19
2023-02-28T01:07:08.211Z,101274.00
2023-02-28T01:09:34.763Z,101275.72
2023-02-28T01:12:01.240Z,101285.28
2023-02-28T01:14:27.802Z,101279.25
2023-02-28T01:16:54.356Z,101282.75
2023-02-28T01:19:20.820Z,101279.28
2023-02-28T01:21:47.273Z,101278.44
2023-02-28T01:24:13.745Z,101280.25
2023-02-28T01:26:40.232Z,101282.03
2023-02-28T01:29:06.682Z,101286.41
2023-02-28T01:31:33.373Z,101281.25
2023-02-28T01:34:00.117Z,101283.88
2023-02-28T01:36:26.911Z,101282.19
2023-02-28T01:38:53.756Z,101284.81
2023-02-28T01:41:26.516Z,101275.28
2023-02-28T01:43:54.724Z,101282.28
2023-02-28T01:46:21.232Z,101282.31
2023-02-28T01:49:10.061Z,101278.91
2023-02-28T01:51:40.514Z,101275.44
2023-02-28T01:54:14.570Z,101285.91
2023-02-28T01:56:53.941Z,101284.19
2023-02-28T01:59:27.793Z,101285.97
2023-02-28T02:01:55.212Z,101279.00
2023-02-28T02:04:24.474Z,101273.81
2023-02-28T02:06:51.094Z,101274.66
2023-02-28T02:09:17.598Z,101272.06
2023-02-28T02:11:46.058Z,101270.31
2023-02-28T02:14:18.572Z,101260.78
2023-02-28T02:16:58.246Z,101263.38
2023-02-28T02:20:04.380Z,101265.13
2023-02-28T02:22:48.902Z,101265.09
2023-02-28T02:25:24.460Z,101258.13
2023-02-28T02:28:10.502Z,101259.00
2023-02-28T02:31:07.099Z,101259.91
2023-02-28T02:33:33.434Z,101264.22
2023-02-28T02:36:06.722Z,101267.72
2023-02-28T02:38:39.325Z,101266.00
2023-02-28T02:41:34.326Z,101262.50
2023-02-28T02:44:16.240Z,101266.00
2023-02-28T02:46:46.175Z,101257.28
2023-02-28T02:49:27.424Z,101253.84
2023-02-28T02:51:55.527Z,101253.84
2023-02-28T02:54:29.487Z,101252.13
2023-02-28T02:57:00.339Z,101259.09
2023-02-28T02:59:29.815Z,101266.97
2023-02-28T03:02:00.726Z,101268.75
2023-02-28T03:04:33.201Z,101268.78
2023-02-28T03:06:59.964Z,101274.06
2023-02-28T03:09:27.248Z,101270.63
2023-02-28T03:11:57.030Z,101274.13
2023-02-28T03:14:47.937Z,101273.31
2023-02-28T03:17:20.457Z,101271.59
2023-02-28T03:20:09.022Z,101269.06
2023-02-28T03:22:44.652Z,101273.44
2023-02-28T03:25:32.857Z,101269.09
2023-02-28T03:28:22.246Z,101276.09
2023-02-28T03:31:11.196Z,101276.09
2023-02-28T03:33:43.428Z,101277.84
2023-02-28T03:36:18.644Z,101273.53
2023-02-28T03:38:55.151Z,101274.41
2023-02-28T03:41:25.145Z,101279.63
2023-02-28T03:44:06.835Z,101272.69
2023-02-28T03:46:40.478Z,101278.75
2023-02-28T03:49:23.943Z,101271.81
2023-02-28T03:51:53.334Z,101269.22
2023-02-28T03:54:26.584Z,101273.53
2023-02-28T03:57:02.023Z,101262.28
2023-02-28T03:59:37.553Z,101271.81
2023-02-28T04:02:04.292Z,101275.28
2023-02-28T04:04:31.049Z,101271.81
2023-02-28T04:07:06.875Z,101278.78
2023-02-28T04:09:33.421Z,101275.28
2023-02-28T04:12:00.380Z,101280.50
2023-02-28T04:14:27.669Z,101279.63
2023-02-28T04:16:54.320Z,101282.22
2023-02-28T04:19:21.082Z,101284.81
2023-02-28T04:21:52.254Z,101280.47
2023-02-28T04:24:24.630Z,101286.56
2023-02-28T04:26:56.730Z,101278.75
2023-02-28T04:29:28.887Z,101282.22
2023-02-28T04:31:58.907Z,101282.22
2023-02-28T04:34:27.281Z,101291.75
2023-02-28T04:37:11.975Z,101286.59
2023-02-28T04:39:40.175Z,101280.50
2023-02-28T04:42:06.866Z,101279.66
2023-02-28T04:44:33.376Z,101281.38
2023-02-28T04:47:00.241Z,101282.28
2023-02-28T04:49:26.935Z,101283.16
2023-02-28T04:51:54.195Z,101288.38
2023-02-28T04:54:20.985Z,101290.13
2023-02-28T04:56:51.080Z,101281.44
2023-02-28T04:59:17.912Z,101285.81
2023-02-28T05:01:48.721Z,101283.22
2023-02-28T05:04:16.195Z,101286.69
2023-02-28T05:06:43.523Z,101299.69
2023-02-28T05:09:12.954Z,101297.09
2023-02-28T05:11:40.812Z,101294.53
2023-02-28T05:14:15.721Z,101294.50
2023-02-28T05:16:45.857Z,101295.38
2023-02-28T05:19:12.395Z,101299.72
2023-02-28T05:21:44.975Z,101298.00
2023-02-28T05:24:16.245Z,101294.50
2023-02-28T05:26:44.135Z,101304.06
2023-02-28T05:29:11.450Z,101303.19
2023-02-28T05:31:38.609Z,101308.41
2023-02-28T05:34:05.461Z,101309.28
2023-02-28T05:36:32.511Z,101308.41
2023-02-28T05:38:59.221Z,101311.00
2023-02-28T05:41:27.278Z,101306.66
2023-02-28T05:43:54.018Z,101312.75
2023-02-28T05:46:20.705Z,101320.56
2023-02-28T05:48:49.050Z,101324.00
2023-02-28T05:51:15.871Z,101318.81
2023-02-28T05:53:42.417Z,101324.00
2023-02-28T05:56:08.932Z,101319.69
2023-02-28T05:58:35.830Z,101318.81
2023-02-28T06:01:37.159Z,101324.00
2023-02-28T06:04:05.677Z,101319.66
2023-02-28T06:06:32.528Z,101319.66
2023-02-28T06:08:59.213Z,101317.91
2023-02-28T06:11:29.046Z,101327.44
2023-02-28T06:14:03.135Z,101324.84
2023-02-28T06:16:31.542Z,101331.78
2023-02-28T06:19:00.324Z,101329.19
2023-02-28T06:21:28.923Z,101323.97
2023-02-28T06:23:57.214Z,101323.13
2023-02-28T06:26:24.517Z,101324.84
2023-02-28T06:28:51.022Z,101325.72
2023-02-28T06:31:19.133Z,101325.72
2023-02-28T06:33:46.617Z,101324.00
2023-02-28T06:36:14.850Z,101328.31
2023-02-28T06:38:42.041Z,101324.88
2023-02-28T06:41:09.319Z,101320.53
2023-02-28T06:43:39.647Z,101324.00
2023-02-28T06:46:09.239Z,101332.66
2023-02-28T06:48:36.521Z,101335.31
2023-02-28T06:51:15.113Z,101338.75
2023-02-28T06:53:41.716Z,101343.09
2023-02-28T06:56:11.355Z,101338.75
2023-02-28T06:58:38.665Z,101344.84
2023-02-28T07:01:06.084Z,101344.84
2023-02-28T07:03:34.473Z,101350.03
2023-02-28T07:06:01.987Z,101345.69
2023-02-28T07:08:28.681Z,101350.91
2023-02-28T07:10:59.203Z,101353.47
2023-02-28T07:13:26.096Z,101352.59
2023-02-28T07:16:07.545Z,101354.38
2023-02-28T07:18:34.810Z,101350.00
2023-02-28T07:21:06.379Z,101350.00
2023-02-28T07:23:33.236Z,101352.63
2023-02-28T07:26:00.059Z,101350.88
2023-02-28T07:28:26.747Z,101356.06
2023-02-28T07:30:53.425Z,101352.59
2023-02-28T07:33:19.974Z,101358.69
2023-02-28T07:35:46.737Z,101363.00
2023-02-28T07:38:14.665Z,101361.28
2023-02-28T07:40:41.389Z,101361.28
2023-02-28T07:43:07.884Z,101356.09
2023-02-28T07:45:37.423Z,101363.00
2023-02-28T07:48:04.096Z,101368.22
2023-02-28T07:50:32.177Z,101369.94
2023-02-28T07:52:59.473Z,101369.94
2023-02-28T07:55:26.076Z,101365.63
2023-02-28T07:57:52.641Z,101361.25
2023-02-28T08:00:19.540Z,101361.25
2023-02-28T08:02:46.038Z,101366.47
2023-02-28T08:05:12.541Z,101375.16
2023-02-28T08:07:39.061Z,101370.78
2023-02-28T08:10:06.686Z,101376.88
2023-02-28T08:12:33.455Z,101371.63
2023-02-28T08:14:59.896Z,101373.34
2023-02-28T08:17:26.413Z,101367.28
2023-02-28T08:19:52.916Z,101369.00
2023-02-28T08:22:19.377Z,101375.09
2023-02-28T08:24:46.061Z,101369.84
2023-02-28T08:27:12.694Z,101374.16
2023-02-28T08:29:39.657Z,101368.06
2023-02-28T08:32:12.389Z,101381.94
2023-02-28T08:34:45.011Z,101378.47
2023-02-28T08:37:12.854Z,101377.59
2023-02-28T08:39:39.535Z,101376.69
2023-02-28T08:42:07.727Z,101387.13
2023-02-28T08:44:34.288Z,101378.41
2023-02-28T08:47:00.805Z,101380.13
2023-02-28T08:49:27.474Z,101375.75
2023-02-28T08:51:55.107Z,101383.56
2023-02-28T08:54:21.853Z,101380.91
2023-02-28T08:56:49.283Z,101385.25
2023-02-28T08:59:16.066Z,101379.13
2023-02-28T09:01:44.420Z,101386.94
2023-02-28T09:04:13.259Z,101376.47
2023-02-28T09:06:41.628Z,101375.59
2023-02-28T09:09:08.529Z,101380.78
2023-02-28T09:11:36.095Z,101383.38
2023-02-28T09:14:04.335Z,101376.41
2023-02-28T09:16:34.104Z,101380.72
2023-02-28T09:19:01.191Z,101378.94
2023-02-28T09:21:28.347Z,101377.19
2023-02-28T09:23:55.033Z,101384.13
2023-02-28T09:26:32.421Z,101380.63
2023-02-28T09:29:05.936Z,101379.72
2023-02-28T09:31:32.626Z,101378.84
2023-02-28T09:34:00.318Z,101380.50
2023-02-28T09:36:41.771Z,101376.16
2023-02-28T09:39:10.501Z,101376.09
2023-02-28T09:41:53.019Z,101371.72
2023-02-28T09:44:39.685Z,101373.38
2023-02-28T09:47:20.048Z,101373.34
2023-02-28T09:49:48.785Z,101381.97
2023-02-28T09:52:20.310Z,101385.41
2023-02-28T09:54:47.194Z,101376.66
2023-02-28T09:57:29.659Z,101376.59
2023-02-28T10:00:19.110Z,101380.88
2023-02-28T10:03:16.759Z,101382.50
2023-02-28T10:05:59.627Z,101377.16
2023-02-28T10:08:37.219Z,101371.84
2023-02-28T10:11:08.579Z,101371.78
2023-02-28T10:13:52.024Z,101377.81
2023-02-28T10:16:24.824Z,101379.41
2023-02-28T10:19:05.476Z,101375.84
2023-02-28T10:21:45.190Z,101378.34
2023-02-28T10:24:24.177Z,101384.31
2023-02-28T10:26:56.962Z,101375.44
2023-02-28T10:29:23.661Z,101371.78
2023-02-28T10:31:50.250Z,101374.28
2023-02-28T10:34:16.864Z,101373.25
2023-02-28T10:36:46.985Z,101372.22
2023-02-28T10:39:35.100Z,101380.81
2023-02-28T10:42:01.555Z,101372.75
2023-02-28T10:44:28.171Z,101371.78
2023-02-28T10:46:54.786Z,101369.06
2023-02-28T10:49:30.159Z,101373.31
2023-02-28T10:51:59.839Z,101372.28
2023-02-28T10:54:36.965Z,101367.81
2023-02-28T10:57:19.835Z,101365.03
2023-02-28T10:59:47.262Z,101369.25
2023-02-28T11:02:37.731Z,101363.94
2023-02-28T11:05:30.844Z,101358.56
2023-02-28T11:08:18.641Z,101353.97
2023-02-28T11:10:48.368Z,101349.38
2023-02-28T11:13:20.432Z,101354.47
2023-02-28T11:15:56.196Z,101359.56
2023-02-28T11:18:43.342Z,101357.69
2023-02-28T11:21:17.400Z,101356.63
2023-02-28T11:23:44.565Z,101349.44
2023-02-28T11:26:12.292Z,101343.22
2023-02-28T11:28:43.299Z,101353.59
2023-02-28T11:31:12.862Z,101349.00
2023-02-28T11:33:39.336Z,101343.44
2023-02-28T11:36:21.155Z,101342.22
2023-02-28T11:38:50.290Z,101344.31
2023-02-28T11:41:16.778Z,101343.84
2023-02-28T11:44:10.154Z,101344.97
2023-02-28T11:46:47.300Z,101339.59
2023-02-28T11:49:24.127Z,101326.84
2023-02-28T11:52:16.727Z,101340.22
2023-02-28T11:55:05.223Z,101336.22
2023-02-28T11:57:51.421Z,101329.34
2023-02-28T12:00:50.690Z,101324.63
2023-02-28T12:03:17.301Z,101331.34
2023-02-28T12:06:10.691Z,101325.31
2023-02-28T12:08:43.074Z,101328.72
2023-02-28T12:11:12.591Z,101320.84
2023-02-28T12:14:00.056Z,101315.13
2023-02-28T12:16:40.812Z,101304.75
2023-02-28T12:19:13.516Z,101305.63
2023-02-28T12:22:01.113Z,101301.22
2023-02-28T12:24:32.567Z,101291.19
2023-02-28T12:27:03.925Z,101289.72
2023-02-28T12:29:35.947Z,101285.97
2023-02-28T12:32:26.730Z,101272.25
2023-02-28T12:34:58.624Z,101271.88
2023-02-28T12:37:54.236Z,101271.28
2023-02-28T12:40:27.904Z,101257.84
2023-02-28T12:42:59.749Z,101263.50
2023-02-28T12:45:35.746Z,101262.25
2023-02-28T12:48:05.944Z,101266.44
2023-02-28T12:50:35.298Z,101247.09
2023-02-28T12:53:27.678Z,101253.81
2023-02-28T12:56:35.591Z,101248.91
2023-02-28T12:59:15.823Z,101249.63
2023-02-28T13:02:33.595Z,101245.69
2023-02-28T13:05:21.166Z,101250.59
2023-02-28T13:08:00.184Z,101238.09
2023-02-28T13:10:40.438Z,101233.88
2023-02-28T13:13:07.594Z,101229.41
2023-02-28T13:15:39.141Z,101227.75
2023-02-28T13:18:05.683Z,101231.22
2023-02-28T13:20:47.619Z,101228.00
2023-02-28T13:23:59.262Z,101222.84
2023-02-28T13:26:31.841Z,101221.44
2023-02-28T13:29:05.362Z,101224.03
2023-02-28T13:31:35.042Z,101222.19
2023-02-28T13:34:16.292Z,101222.06
2023-02-28T13:36:43.218Z,101225.97
2023-02-28T13:39:37.779Z,101227.16
2023-02-28T13:42:23.151Z,101233.03
2023-02-28T13:45:05.035Z,101224.47
2023-02-28T13:47:40.365Z,101229.97
2023-02-28T13:50:25.213Z,101221.97
2023-02-28T13:53:16.915Z,101224.44
2023-02-28T13:55:52.965Z,101225.16
2023-02-28T13:58:44.195Z,101231.75
2023-02-28T14:01:32.516Z,101229.09
2023-02-28T14:04:32.389Z,101230.50
2023-02-28T14:07:01.146Z,101237.03
2023-02-28T14:09:42.804Z,101224.28
2023-02-28T14:12:46.674Z,101234.06
2023-02-28T14:15:34.143Z,101222.38
2023-02-28T14:18:11.699Z,101213.88
2023-02-28T14:20:41.880Z,101212.41
2023-02-28T14:23:51.419Z,101215.34
2023-02-28T14:26:36.443Z,101217.41
2023-02-28T14:29:49.090Z,101212.97
2023-02-28T14:32:44.492Z,101202.91
2023-02-28T14:35:49.141Z,101209.38
2023-02-28T14:38:22.628Z,101201.88
2023-02-28T14:40:52.179Z,101194.00
2023-02-28T14:43:27.236Z,101199.25
2023-02-28T14:45:59.691Z,101193.31
2023-02-28T14:48:27.784Z,101192.56
2023-02-28T14:50:58.178Z,101198.09
2023-02-28T14:53:29.295Z,101200.09
2023-02-28T14:55:56.013Z,101201.94
2023-02-28T14:58:29.651Z,101185.66
2023-02-28T15:00:58.638Z,101186.97
2023-02-28T15:03:34.555Z,101191.03
2023-02-28T15:08:49.093Z,101194.41
2023-02-28T15:11:20.358Z,101199.53
2023-02-28T15:13:51.451Z,101192.22
2023-02-28T15:16:23.319Z,101193.44
2023-02-28T15:19:11.547Z,101202.66
2023-02-28T15:21:45.846Z,101194.56
2023-02-28T15:24:33.644Z,101186.00
2023-02-28T15:27:04.702Z,101192.22
2023-02-28T15:29:38.245Z,101191.88
2023-02-28T15:32:07.468Z,101193.53
2023-02-28T15:34:43.470Z,101191.13
2023-02-28T15:37:25.348Z,101193.75
2023-02-28T15:39:52.558Z,101203.72
2023-02-28T15:42:21.533Z,101197.09
2023-02-28T15:44:48.655Z,101200.91
2023-02-28T15:47:28.148Z,101204.31
2023-02-28T15:50:00.280Z,101204.72
2023-02-28T15:52:38.630Z,101210.22
2023-02-28T15:55:09.992Z,101219.69
2023-02-28T15:57:36.873Z,101216.19
2023-02-28T16:00:07.637Z,101213.59
2023-02-28T16:02:36.393Z,101222.00
2023-02-28T16:05:21.773Z,101211.66
2023-02-28T16:07:49.852Z,101210.13
2023-02-28T16:10:16.534Z,101209.56
2023-02-28T16:12:43.247Z,101217.72
2023-02-28T16:15:20.211Z,101212.66
2023-02-28T16:17:47.583Z,101212.44
2023-02-28T16:20:19.657Z,101220.38
2023-02-28T16:22:46.602Z,101215.84
2023-02-28T16:25:18.447Z,101227.16
2023-02-28T16:27:48.568Z,101224.13
2023-02-28T16:30:27.986Z,101222.25
2023-02-28T16:32:56.572Z,101224.44
2023-02-28T16:35:23.693Z,101223.97
2023-02-28T16:37:52.500Z,101220.00
2023-02-28T16:40:24.048Z,101216.75
2023-02-28T16:42:53.558Z,101222.31
2023-02-28T16:45:24.430Z,101221.69
2023-02-28T16:47:51.369Z,101217.50
2023-02-28T16:50:20.401Z,101220.47
2023-02-28T16:52:47.599Z,101228.63
2023-02-28T16:55:14.151Z,101217.59
2023-02-28T16:57:41.439Z,101218.78
2023-02-28T17:00:12.008Z,101229.69
2023-02-28T17:02:41.187Z,101227.31
2023-02-28T17:05:11.408Z,101232.91
2023-02-28T17:07:37.870Z,101233.16
2023-02-28T17:10:14.088Z,101242.19
2023-02-28T17:12:40.493Z,101234.44
2023-02-28T17:15:07.751Z,101232.88
2023-02-28T17:17:34.505Z,101226.00
2023-02-28T17:20:01.081Z,101229.66
2023-02-28T17:22:27.480Z,101227.22
2023-02-28T17:24:56.729Z,101237.81
2023-02-28T17:27:23.288Z,101235.34
2023-02-28T17:29:49.808Z,101245.09
2023-02-28T17:32:18.393Z,101241.66
2023-02-28T17:34:46.980Z,101247.97
2023-02-28T17:37:14.161Z,101243.78
2023-02-28T17:39:40.829Z,101247.44
2023-02-28T17:42:07.385Z,101252.84
2023-02-28T17:44:33.909Z,101253.78
2023-02-28T17:47:00.683Z,101253.03
2023-02-28T17:49:27.290Z,101261.88
2023-02-28T17:51:53.780Z,101263.72
2023-02-28T17:54:20.904Z,101267.25
2023-02-28T17:56:47.590Z,101263.00
2023-02-28T17:59:14.880Z,101261.28
2023-02-28T18:01:41.461Z,101268.31
2023-02-28T18:04:08.144Z,101266.66
2023-02-28T18:06:47.180Z,101267.63
2023-02-28T18:09:15.814Z,101274.59
2023-02-28T18:11:45.955Z,101272.91
2023-02-28T18:14:12.962Z,101272.16
2023-02-28T18:16:39.543Z,101262.63
2023-02-28T18:19:07.046Z,101272.34
2023-02-28T18:21:33.595Z,101267.19
2023-02-28T18:24:00.114Z,101265.53
2023-02-28T18:26:26.686Z,101268.22
2023-02-28T18:28:53.171Z,101264.78
2023-02-28T18:31:20.891Z,101265.78
2023-02-28T18:33:52.373Z,101260.66
2023-02-28T18:36:20.979Z,101269.41
2023-02-28T18:38:48.534Z,101263.38
2023-02-28T18:41:15.056Z,101271.28
2023-02-28T18:43:41.554Z,101263.47
2023-02-28T18:46:11.876Z,101261.84
2023-02-28T18:48:38.711Z,101267.09
2023-02-28T18:51:09.767Z,101258.47
2023-02-28T18:53:38.025Z,101266.41
2023-02-28T18:56:06.214Z,101270.84
2023-02-28T18:58:33.559Z,101268.28
2023-02-28T19:01:01.325Z,101269.25
2023-02-28T19:03:27.962Z,101263.22
2023-02-28T19:05:56.082Z,101258.88
2023-02-28T19:08:23.210Z,101262.41
2023-02-28T19:10:49.907Z,101258.09
2023-02-28T19:13:16.724Z,101259.03
2023-02-28T19:15:43.270Z,101252.13
2023-02-28T19:18:09.879Z,101250.44
2023-02-28T19:20:37.564Z,101247.91
2023-02-28T19:23:04.448Z,101247.94
2023-02-28T19:25:31.015Z,101247.09
2023-02-28T19:27:57.716Z,101255.91
2023-02-28T19:30:24.249Z,101248.94
2023-02-28T19:32:50.930Z,101255.13
2023-02-28T19:35:17.520Z,101254.31
2023-02-28T19:37:44.067Z,101259.56
2023-02-28T19:40:13.485Z,101263.09
2023-02-28T19:42:39.975Z,101265.75
2023-02-28T19:45:10.006Z,101270.16
2023-02-28T19:47:36.871Z,101264.94
2023-02-28T19:50:03.489Z,101258.88
2023-02-28T19:52:29.997Z,101271.97
2023-02-28T19:54:56.550Z,101271.13
2023-02-28T19:57:23.090Z,101274.69
2023-02-28T19:59:51.114Z,101271.25
2023-02-28T20:02:22.063Z,101272.16
2023-02-28T20:04:50.287Z,101274.00
2023-02-28T20:07:20.221Z,101277.50
2023-02-28T20:09:48.032Z,101274.91
2023-02-28T20:12:24.209Z,101272.34
2023-02-28T20:14:51.804Z,101275.84
2023-02-28T20:17:18.802Z,101276.78
2023-02-28T20:19:45.553Z,101271.56
2023-02-28T20:22:12.138Z,101281.19
2023-02-28T20:24:38.750Z,101271.63
2023-02-28T20:27:05.593Z,101281.22
2023-02-28T20:29:33.851Z,101274.28
2023-02-28T20:32:00.590Z,101279.56
2023-02-28T20:34:27.078Z,101286.59
2023-02-28T20:36:54.006Z,101286.59
2023-02-28T20:39:20.528Z,101284.03
2023-02-28T20:41:47.300Z,101280.56
2023-02-28T20:44:14.052Z,101282.34
2023-02-28T20:46:41.603Z,101281.50
2023-02-28T20:49:08.200Z,101280.66
2023-02-28T20:51:34.793Z,101275.47
2023-02-28T20:54:01.288Z,101275.50
2023-02-28T20:56:28.290Z,101284.22
2023-02-28T20:58:58.107Z,101284.31
2023-02-28T21:01:27.670Z,101279.09
2023-02-28T21:04:08.481Z,101285.25
2023-02-28T21:06:38.499Z,101284.38
2023-02-28T21:09:07.868Z,101289.66
2023-02-28T21:11:37.131Z,101294.91
2023-02-28T21:14:11.236Z,101293.19
2023-02-28T21:16:38.247Z,101287.09
2023-02-28T21:19:05.263Z,101301.06
2023-02-28T21:21:35.585Z,101301.06
2023-02-28T21:24:02.090Z,101301.13
2023-02-28T21:26:29.438Z,101308.09
2023-02-28T21:29:01.897Z,101301.19
2023-02-28T21:31:31.547Z,101309.06
2023-02-28T21:33:59.752Z,101302.13
2023-02-28T21:36:34.959Z,101303.03
2023-02-28T21:39:08.140Z,101309.16
2023-02-28T21:41:35.668Z,101301.38
2023-02-28T21:44:02.481Z,101300.53
2023-02-28T21:46:30.942Z,101301.44
2023-02-28T21:48:58.234Z,101297.13
2023-02-28T21:51:33.256Z,101298.91
2023-02-28T21:54:01.250Z,101296.31
2023-02-28T21:56:31.118Z,101292.88
2023-02-28T21:59:01.131Z,101285.09
2023-02-28T22:01:32.416Z,101286.00
2023-02-28T22:03:59.544Z,101286.91
2023-02-28T22:06:29.406Z,101297.38
2023-02-28T22:08:58.715Z,101290.44
2023-02-28T22:11:26.274Z,101286.97
2023-02-28T22:13:56.125Z,101286.06
2023-02-28T22:16:24.742Z,101290.44
2023-02-28T22:18:51.218Z,101297.38
2023-02-28T22:21:19.040Z,101298.22
2023-02-28T22:23:46.197Z,101299.09
2023-02-28T22:26:18.947Z,101306.94
2023-02-28T22:28:45.480Z,101298.22
2023-02-28T22:31:21.573Z,101293.06
2023-02-28T22:33:51.786Z,101299.13
2023-02-28T22:36:19.823Z,101289.56
2023-02-28T22:38:47.339Z,101300.88
2023-02-28T22:41:14.473Z,101298.28
2023-02-28T22:43:42.276Z,101294.78
2023-02-28T22:46:11.023Z,101293.06
2023-02-28T22:48:37.564Z,101300.91
2023-02-28T22:51:12.635Z,101304.41
2023-02-28T22:53:39.568Z,101307.88
2023-02-28T22:56:07.423Z,101305.28
2023-02-28T22:58:34.026Z,101314.84
2023-02-28T23:01:09.920Z,101309.66
2023-02-28T23:03:36.785Z,101317.50
2023-02-28T23:06:20.450Z,101320.13
2023-02-28T23:08:47.416Z,101314.91
2023-02-28T23:11:23.450Z,101318.38
2023-02-28T23:13:59.926Z,101310.56
2023-02-28T23:16:37.335Z,101314.97
2023-02-28T23:19:07.290Z,101314.06
2023-02-28T23:21:35.097Z,101321.06
2023-02-28T23:24:02.984Z,101325.41
2023-02-28T23:26:31.767Z,101321.94
2023-02-28T23:28:59.395Z,101316.72
2023-02-28T23:31:25.890Z,101315.00
2023-02-28T23:33:52.520Z,101311.53
2023-02-28T23:36:19.276Z,101309.81
2023-02-28T23:38:49.108Z,101310.69
2023-02-28T23:41:16.126Z,101303.75
2023-02-28T23:43:42.786Z,101303.75
2023-02-28T23:46:11.493Z,101299.38
2023-02-28T23:48:38.579Z,101304.59
2023-02-28T23:51:08.617Z,101295.06
2023-02-28T23:53:38.152Z,101302.88
2023-02-28T23:56:07.588Z,101304.66
2023-02-28T23:58:34.636Z,101295.09
